createdAt,value
2023-03-23T15:58:24.048Z,100216.63
2023-03-23T16:00:52.392Z,100220.72
2023-03-23T16:03:22.175Z,100219.63
2023-03-23T16:05:50.791Z,100221.25
2023-03-23T16:08:18.502Z,100219.34
2023-03-23T16:10:46.237Z,100223.97
2023-03-23T16:13:15.389Z,100219.03
2023-03-23T16:15:43.237Z,100219.78
2023-03-23T16:18:16.110Z,100210.91
2023-03-23T16:20:43.890Z,100216.47
2023-03-23T16:23:11.583Z,100217.75
2023-03-23T16:25:39.242Z,100222.53
2023-03-23T16:28:06.921Z,100213.91
2023-03-23T16:30:36.294Z,100221.31
2023-03-23T16:33:04.406Z,100220.00
2023-03-23T16:35:32.090Z,100228.41
2023-03-23T16:38:07.020Z,100219.19
2023-03-23T16:40:36.469Z,100212.59
2023-03-23T16:43:09.238Z,100215.50
2023-03-23T16:45:40.984Z,100214.09
2023-03-23T16:48:10.342Z,100213.53
2023-03-23T16:50:38.165Z,100209.41
2023-03-23T16:53:06.587Z,100206.22
2023-03-23T16:55:34.251Z,100207.31
2023-03-23T16:58:15.411Z,100202.19
2023-03-23T17:00:46.590Z,100202.50
2023-03-23T17:03:16.083Z,100201.03
2023-03-23T17:05:45.120Z,100199.56
2023-03-23T17:08:13.180Z,100198.06
2023-03-23T17:10:41.640Z,100213.22
2023-03-23T17:13:09.452Z,100211.66
2023-03-23T17:15:38.123Z,100218.94
2023-03-23T17:18:07.476Z,100217.38
2023-03-23T17:20:35.255Z,100221.94
2023-03-23T17:23:03.053Z,100225.63
2023-03-23T17:25:31.577Z,100223.25
2023-03-23T17:28:05.894Z,100228.63
2023-03-23T17:30:45.351Z,100213.88
2023-03-23T17:33:14.471Z,100228.06
2023-03-23T17:35:42.917Z,100238.75
2023-03-23T17:38:11.009Z,100231.22
2023-03-23T17:40:38.727Z,100245.19
2023-03-23T17:43:06.943Z,100255.88
2023-03-23T17:45:34.609Z,100255.09
2023-03-23T17:48:04.576Z,100252.59
2023-03-23T17:50:33.721Z,100272.00
2023-03-23T17:53:01.560Z,100265.91
2023-03-23T17:55:29.263Z,100273.06
2023-03-23T17:57:56.953Z,100283.69
2023-03-23T18:00:24.755Z,100279.34
2023-03-23T18:02:52.561Z,100271.50
2023-03-23T18:05:20.446Z,100262.78
2023-03-23T18:07:50.063Z,100272.56
2023-03-23T18:10:17.876Z,100280.47
2023-03-23T18:12:45.638Z,100280.53
2023-03-23T18:15:13.389Z,100291.13
2023-03-23T18:17:42.159Z,100292.06
2023-03-23T18:20:10.190Z,100282.53
2023-03-23T18:22:37.959Z,100283.53
2023-03-23T18:25:07.381Z,100280.06
2023-03-23T18:27:35.127Z,100281.00
2023-03-23T18:30:03.287Z,100285.50
2023-03-23T18:32:31.040Z,100287.34
2023-03-23T18:34:58.815Z,100291.78
2023-03-23T18:37:26.613Z,100285.72
2023-03-23T18:39:54.501Z,100290.09
2023-03-23T18:42:23.535Z,100290.22
2023-03-23T18:44:51.251Z,100289.34
2023-03-23T18:47:18.966Z,100298.19
2023-03-23T18:49:51.020Z,100287.63
2023-03-23T18:52:18.769Z,100286.75
2023-03-23T18:54:46.663Z,100286.81
2023-03-23T18:57:14.533Z,100301.72
2023-03-23T18:59:43.606Z,100297.38
2023-03-23T19:02:11.741Z,100284.25
2023-03-23T19:04:39.470Z,100293.03
2023-03-23T19:07:07.486Z,100297.44
2023-03-23T19:09:35.265Z,100287.06
2023-03-23T19:12:02.984Z,100291.44
2023-03-23T19:14:30.832Z,100296.72
2023-03-23T19:16:59.969Z,100298.50
2023-03-23T19:19:27.743Z,100301.13
2023-03-23T19:21:55.466Z,100287.19
2023-03-23T19:24:23.588Z,100286.31
2023-03-23T19:26:51.691Z,100291.66
2023-03-23T19:29:26.717Z,100291.75
2023-03-23T19:31:55.311Z,100294.38
2023-03-23T19:34:25.004Z,100289.16
2023-03-23T19:37:02.006Z,100290.13
2023-03-23T19:39:33.349Z,100289.25
2023-03-23T19:42:01.128Z,100285.84
2023-03-23T19:44:29.138Z,100277.06
2023-03-23T19:46:57.563Z,100274.44
2023-03-23T19:49:26.981Z,100270.09
2023-03-23T19:52:06.394Z,100263.13
2023-03-23T19:54:38.540Z,100257.00
2023-03-23T19:57:06.346Z,100253.50
2023-03-23T19:59:34.082Z,100250.03
2023-03-23T20:02:02.267Z,100243.88
2023-03-23T20:04:31.698Z,100249.16
2023-03-23T20:07:00.460Z,100248.22
2023-03-23T20:09:28.512Z,100242.97
2023-03-23T20:11:56.476Z,100234.16
2023-03-23T20:14:25.724Z,100228.03
2023-03-23T20:16:53.919Z,100231.53
2023-03-23T20:19:21.996Z,100234.06
2023-03-23T20:21:52.357Z,100228.72
2023-03-23T20:24:20.671Z,100230.47
2023-03-23T20:26:48.410Z,100215.50
2023-03-23T20:29:16.451Z,100208.47
2023-03-23T20:31:46.215Z,100221.63
2023-03-23T20:34:17.151Z,100228.63
2023-03-23T20:36:45.819Z,100226.91
2023-03-23T20:39:18.990Z,100231.28
2023-03-23T20:41:50.405Z,100226.91
2023-03-23T20:44:18.678Z,100221.63
2023-03-23T20:46:47.143Z,100225.19
2023-03-23T20:49:15.885Z,100225.19
2023-03-23T20:51:44.739Z,100227.75
2023-03-23T20:54:15.190Z,100221.63
2023-03-23T20:56:43.014Z,100225.19
2023-03-23T20:59:11.472Z,100223.38
2023-03-23T21:01:39.919Z,100217.28
2023-03-23T21:04:14.716Z,100223.38
2023-03-23T21:06:42.560Z,100226.03
2023-03-23T21:09:10.372Z,100219.94
2023-03-23T21:11:39.523Z,100226.91
2023-03-23T21:14:07.510Z,100227.75
2023-03-23T21:16:35.358Z,100210.22
2023-03-23T21:19:04.007Z,100208.47
2023-03-23T21:21:31.836Z,100200.56
2023-03-23T21:23:59.578Z,100209.38
2023-03-23T21:26:28.601Z,100203.31
2023-03-23T21:29:00.589Z,100207.72
2023-03-23T21:31:30.501Z,100194.63
2023-03-23T21:33:58.803Z,100193.78
2023-03-23T21:36:30.324Z,100201.69
2023-03-23T21:38:58.015Z,100192.84
2023-03-23T21:41:26.984Z,100187.63
2023-03-23T21:43:54.684Z,100183.25
2023-03-23T21:46:23.765Z,100186.88
2023-03-23T21:48:51.920Z,100169.38
2023-03-23T21:51:21.599Z,100172.91
2023-03-23T21:53:50.078Z,100168.56
2023-03-23T21:56:18.075Z,100159.81
2023-03-23T21:58:45.774Z,100156.31
2023-03-23T22:01:13.866Z,100152.00
2023-03-23T22:03:44.250Z,100154.56
2023-03-23T22:06:13.387Z,100130.84
2023-03-23T22:08:42.693Z,100134.31
2023-03-23T22:11:13.534Z,100136.03
2023-03-23T22:13:42.147Z,100133.38
2023-03-23T22:16:11.233Z,100130.75
2023-03-23T22:18:39.105Z,100131.63
2023-03-23T22:21:08.399Z,100121.09
2023-03-23T22:23:36.184Z,100112.31
2023-03-23T22:26:03.999Z,100103.56
2023-03-23T22:28:31.920Z,100096.59
2023-03-23T22:31:01.711Z,100094.03
2023-03-23T22:33:29.704Z,100104.63
2023-03-23T22:35:57.468Z,100094.16
2023-03-23T22:38:26.719Z,100098.50
2023-03-23T22:40:57.685Z,100081.88
2023-03-23T22:43:26.942Z,100083.56
2023-03-23T22:45:54.866Z,100080.94
2023-03-23T22:48:23.112Z,100073.03
2023-03-23T22:50:50.992Z,100069.53
2023-03-23T22:53:18.842Z,100067.84
2023-03-23T22:55:48.720Z,100061.69
2023-03-23T22:58:16.653Z,100062.56
2023-03-23T23:00:46.411Z,100048.53
2023-03-23T23:03:14.330Z,100053.72
2023-03-23T23:05:42.586Z,100045.00
2023-03-23T23:08:12.445Z,100043.19
2023-03-23T23:10:40.727Z,100029.25
2023-03-23T23:13:10.064Z,100029.25
2023-03-23T23:15:37.946Z,100021.38
2023-03-23T23:18:06.428Z,100028.34
2023-03-23T23:20:34.415Z,100021.28
2023-03-23T23:23:02.581Z,100017.78
2023-03-23T23:25:30.617Z,100014.28
2023-03-23T23:27:58.743Z,100006.50
2023-03-23T23:30:30.569Z,100002.06
2023-03-23T23:32:58.766Z,99994.16
2023-03-23T23:35:26.740Z,99989.84
2023-03-23T23:37:54.555Z,99988.97
2023-03-23T23:40:22.325Z,99987.19
2023-03-23T23:42:51.074Z,99988.06
2023-03-23T23:45:19.125Z,99981.84
2023-03-23T23:47:48.255Z,99984.50
2023-03-23T23:50:16.856Z,99981.84
2023-03-23T23:52:45.073Z,99977.53
2023-03-23T23:55:15.431Z,99983.56
2023-03-23T23:57:43.285Z,99966.06
